Time;durP1;ratioP1;P1;durP2;ratioP2;P2;SDS_P1;SDS_P2;PMS_P1;PMS_P2;Temp;Humidity;BMP_temperature;BMP_pressure;BME280_temperature;BME280_humidity;BME280_pressure;Samples;Min_cycle;Max_cycle;Signal;HPM_P1;HPM_P2
2022/10/04 00:03:29;;;;;;;14.30;10.82;;;;;;;;;;10123671;28;20052;-68
2022/10/04 00:08:33;;;;;;;9.80;8.85;;;;;;;;;;10146510;28;20059;-70
2022/10/04 00:13:28;;;;;;;12.43;9.02;;;;;;;;;;10137346;28;20048;-69
2022/10/04 00:18:57;;;;;;;10.73;8.80;;;;;;;;;;10134415;28;20045;-68
2022/10/04 00:24:08;;;;;;;10.03;8.23;;;;;;;;;;10128834;28;20110;-68
2022/10/04 00:29:42;;;;;;;9.07;7.43;;;;;;;;;;10101545;28;20458;-68
2022/10/04 00:34:35;;;;;;;12.23;7.75;;;;;;;;;;10132373;28;20528;-68
2022/10/04 00:39:31;;;;;;;15.90;8.95;;;;;;;;;;10145390;28;20509;-69
2022/10/04 00:44:43;;;;;;;10.00;9.05;;;;;;;;;;10140854;28;20162;-67
2022/10/04 00:49:40;;;;;;;11.52;10.07;;;;;;;;;;10140317;28;20503;-67
2022/10/04 00:54:40;;;;;;;14.20;8.75;;;;;;;;;;10151127;28;20072;-67
2022/10/04 00:59:40;;;;;;;10.60;7.45;;;;;;;;;;10133504;28;20131;-67
2022/10/04 01:04:38;;;;;;;14.43;8.65;;;;;;;;;;10149170;28;20052;-67
2022/10/04 01:09:34;;;;;;;9.13;8.23;;;;;;;;;;10122709;28;20098;-66
2022/10/04 01:14:50;;;;;;;10.00;8.43;;;;;;;;;;10145153;28;20056;-67
2022/10/04 01:19:52;;;;;;;8.10;5.25;;;;;;;;;;10125494;28;20064;-67
2022/10/04 01:24:47;;;;;;;12.75;7.30;;;;;;;;;;10141568;28;20060;-66
2022/10/04 01:29:43;;;;;;;7.00;6.30;;;;;;;;;;10143174;28;20060;-67
2022/10/04 01:34:39;;;;;;;10.63;6.55;;;;;;;;;;10148870;28;20473;-66
2022/10/04 01:39:33;;;;;;;9.15;7.20;;;;;;;;;;10118960;28;20127;-64
2022/10/04 01:44:48;;;;;;;8.27;6.95;;;;;;;;;;10124065;28;20049;-65
2022/10/04 01:49:44;;;;;;;8.15;7.38;;;;;;;;;;10117387;28;20059;-65
2022/10/04 01:55:06;;;;;;;11.63;8.38;;;;;;;;;;10148682;28;20057;-66
2022/10/04 02:00:06;;;;;;;12.98;7.55;;;;;;;;;;10111511;28;20076;-66
2022/10/04 02:05:01;;;;;;;7.82;6.90;;;;;;;;;;10131575;28;20055;-66
2022/10/04 02:09:58;;;;;;;9.00;7.75;;;;;;;;;;10117114;28;20128;-66
2022/10/04 02:15:12;;;;;;;7.28;6.68;;;;;;;;;;10114737;28;20102;-66
2022/10/04 02:20:35;;;;;;;8.43;7.70;;;;;;;;;;10101326;28;20090;-66
2022/10/04 02:25:29;;;;;;;11.23;7.35;;;;;;;;;;10126644;28;20049;-65
2022/10/04 02:30:23;;;;;;;9.02;8.13;;;;;;;;;;10121578;28;20052;-65
2022/10/04 02:35:17;;;;;;;15.38;8.20;;;;;;;;;;10122273;28;20383;-65
2022/10/04 02:40:17;;;;;;;13.63;7.47;;;;;;;;;;10106899;28;20485;-65
2022/10/04 02:45:25;;;;;;;10.25;8.23;;;;;;;;;;10119636;28;20048;-64
2022/10/04 02:50:47;;;;;;;9.40;8.45;;;;;;;;;;10136378;28;20048;-65
2022/10/04 02:56:24;;;;;;;11.77;9.93;;;;;;;;;;10138319;28;20425;-66
2022/10/04 03:01:36;;;;;;;10.73;9.60;;;;;;;;;;10138116;28;20068;-66
2022/10/04 03:06:31;;;;;;;12.30;9.63;;;;;;;;;;10134658;28;20060;-66
2022/10/04 03:11:26;;;;;;;11.00;9.90;;;;;;;;;;10108665;28;20071;-65
2022/10/04 03:16:20;;;;;;;11.65;8.80;;;;;;;;;;10129541;28;20178;-66
2022/10/04 03:21:16;;;;;;;11.52;9.05;;;;;;;;;;10128348;28;20060;-65
2022/10/04 03:26:29;;;;;;;11.93;8.30;;;;;;;;;;10095902;28;20452;-65
2022/10/04 03:31:47;;;;;;;11.82;9.40;;;;;;;;;;10144983;28;20094;-65
2022/10/04 03:37:00;;;;;;;16.10;9.85;;;;;;;;;;10127681;28;20076;-64
2022/10/04 03:42:12;;;;;;;13.45;9.05;;;;;;;;;;10130319;28;20063;-63
2022/10/04 03:47:10;;;;;;;18.08;12.00;;;;;;;;;;10114211;28;20474;-63
2022/10/04 03:52:06;;;;;;;12.68;11.20;;;;;;;;;;10146343;28;20072;-66
2022/10/04 03:57:01;;;;;;;13.52;10.40;;;;;;;;;;10119424;28;20059;-65
2022/10/04 04:02:06;;;;;;;33.75;15.60;;;;;;;;;;10148059;28;20059;-64
2022/10/04 04:07:04;;;;;;;46.88;15.90;;;;;;;;;;10150832;28;20497;-64
2022/10/04 04:12:00;;;;;;;45.40;16.58;;;;;;;;;;10130277;28;20056;-64
2022/10/04 04:17:17;;;;;;;39.95;16.65;;;;;;;;;;10115031;28;20056;-63
2022/10/04 04:22:14;;;;;;;35.45;15.35;;;;;;;;;;10111901;28;20123;-63
2022/10/04 04:27:09;;;;;;;48.33;17.55;;;;;;;;;;10124283;28;20064;-64
2022/10/04 04:32:31;;;;;;;42.78;17.38;;;;;;;;;;10111377;28;20049;-66
2022/10/04 04:37:25;;;;;;;57.63;18.67;;;;;;;;;;10122511;28;20102;-64
2022/10/04 04:42:33;;;;;;;32.40;17.13;;;;;;;;;;10129718;28;20098;-64
2022/10/04 04:47:32;;;;;;;29.03;16.20;;;;;;;;;;10134207;28;20068;-64
2022/10/04 04:52:28;;;;;;;32.38;15.90;;;;;;;;;;10128262;28;20056;-64
2022/10/04 04:57:21;;;;;;;27.55;16.70;;;;;;;;;;10137225;28;20044;-69
2022/10/04 05:02:34;;;;;;;28.35;17.20;;;;;;;;;;10136215;28;20059;-68
2022/10/04 05:07:28;;;;;;;25.05;15.57;;;;;;;;;;10127225;28;20032;-67
2022/10/04 05:12:23;;;;;;;32.13;17.92;;;;;;;;;;10130255;28;20068;-67
2022/10/04 05:17:37;;;;;;;55.08;21.27;;;;;;;;;;10125169;28;20059;-66
2022/10/04 05:22:33;;;;;;;54.03;18.83;;;;;;;;;;10124129;28;20102;-63
2022/10/04 05:27:29;;;;;;;26.85;16.15;;;;;;;;;;10121263;28;20049;-63
2022/10/04 05:32:46;;;;;;;21.13;13.02;;;;;;;;;;10122493;28;20068;-63
2022/10/04 05:38:17;;;;;;;19.02;13.73;;;;;;;;;;10121554;28;20052;-63
2022/10/04 05:43:28;;;;;;;24.55;14.52;;;;;;;;;;10134561;28;20539;-63
2022/10/04 05:48:22;;;;;;;21.90;14.05;;;;;;;;;;10126017;28;20048;-63
2022/10/04 05:53:36;;;;;;;19.35;13.82;;;;;;;;;;10129292;28;20052;-63
2022/10/04 05:58:57;;;;;;;17.45;13.68;;;;;;;;;;10138498;28;20047;-63
2022/10/04 06:04:18;;;;;;;19.95;13.80;;;;;;;;;;10136779;28;20052;-62
2022/10/04 06:09:17;;;;;;;25.73;15.90;;;;;;;;;;10133415;28;20079;-61
2022/10/04 06:14:10;;;;;;;;;;;;;;;;;;10121224;28;20083;-61
2022/10/04 06:19:22;;;;;;;27.25;17.15;;;;;;;;;;10119246;28;19920;-61
2022/10/04 06:24:29;;;;;;;23.95;16.13;;;;;;;;;;10118692;28;20053;-61
2022/10/04 06:29:27;;;;;;;35.88;19.13;;;;;;;;;;10124421;28;20117;-62
2022/10/04 06:34:40;;;;;;;26.40;18.73;;;;;;;;;;10130598;28;20404;-62
2022/10/04 06:39:36;;;;;;;23.17;18.08;;;;;;;;;;10139200;28;20049;-61
2022/10/04 06:44:48;;;;;;;30.27;20.45;;;;;;;;;;10127710;28;20079;-61
2022/10/04 06:49:49;;;;;;;;;;;;;;;;;;10111808;28;20135;-61
2022/10/04 06:55:08;;;;;;;26.20;18.90;;;;;;;;;;10135575;28;19921;-61
2022/10/04 07:00:23;;;;;;;30.53;22.33;;;;;;;;;;10125146;28;20083;-61
2022/10/04 07:05:59;;;;;;;34.83;22.42;;;;;;;;;;10135016;28;20044;-61
2022/10/04 07:11:18;;;;;;;27.05;22.27;;;;;;;;;;9943609;28;20155;-61
2022/10/04 07:16:36;;;;;;;24.17;20.08;;;;;;;;;;10105547;28;20057;-61
2022/10/04 07:21:54;;;;;;;21.83;17.42;;;;;;;;;;10130929;28;20558;-61
2022/10/04 07:27:04;;;;;;;20.95;18.60;;;;;;;;;;10118236;28;20045;-61
2022/10/04 07:32:20;;;;;;;;;;;;;;;;;;10135350;28;20432;-61
2022/10/04 07:37:33;;;;;;;22.63;19.90;;;;;;;;;;10127167;28;19928;-60
2022/10/04 07:42:36;;;;;;;28.45;18.98;;;;;;;;;;10118270;28;20382;-61
2022/10/04 07:47:49;;;;;;;20.60;18.48;;;;;;;;;;10131361;28;20501;-61
2022/10/04 07:52:51;;;;;;;21.88;19.52;;;;;;;;;;10098875;28;20060;-61
2022/10/04 07:58:09;;;;;;;26.60;22.52;;;;;;;;;;10108478;28;21241;-61
2022/10/04 08:03:09;;;;;;;23.85;21.30;;;;;;;;;;10122136;28;20080;-61
2022/10/04 08:08:08;;;;;;;26.70;21.88;;;;;;;;;;10120694;28;20045;-61
2022/10/04 08:13:25;;;;;;;24.98;21.05;;;;;;;;;;10128352;28;20459;-61
2022/10/04 08:18:36;;;;;;;23.85;21.35;;;;;;;;;;10131071;28;20055;-61
2022/10/04 08:23:56;;;;;;;26.60;23.75;;;;;;;;;;10142840;28;20047;-61
2022/10/04 08:34:16;;;;;;;28.27;24.33;;;;;;;;;;10133090;28;20041;-61
2022/10/04 08:39:25;;;;;;;28.85;23.60;;;;;;;;;;10139904;28;20420;-62
2022/10/04 08:44:48;;;;;;;33.88;30.20;;;;;;;;;;10143874;28;20048;-62
2022/10/04 08:49:52;;;;;;;21.48;19.30;;;;;;;;;;10139373;28;20063;-63
2022/10/04 08:55:22;;;;;;;21.67;18.95;;;;;;;;;;10129096;28;20509;-61
2022/10/04 09:00:36;;;;;;;26.23;22.98;;;;;;;;;;10131004;28;20044;-62
2022/10/04 09:05:44;;;;;;;32.17;28.92;;;;;;;;;;10133651;28;20041;-62
2022/10/04 09:11:24;;;;;;;36.40;32.37;;;;;;;;;;10126981;28;20044;-61
2022/10/04 09:16:45;;;;;;;33.75;27.83;;;;;;;;;;10083553;28;20076;-61
2022/10/04 09:22:02;;;;;;;29.55;26.27;;;;;;;;;;10128710;28;20126;-61
2022/10/04 09:27:11;;;;;;;29.80;26.35;;;;;;;;;;10125090;28;20056;-62
2022/10/04 09:32:06;;;;;;;30.80;27.25;;;;;;;;;;10117223;28;20068;-62
2022/10/04 09:37:31;;;;;;;28.25;25.30;;;;;;;;;;10116231;28;20060;-62
2022/10/04 09:42:54;;;;;;;26.40;23.63;;;;;;;;;;10112445;28;20045;-62
2022/10/04 09:47:50;;;;;;;28.73;25.27;;;;;;;;;;10121891;28;20041;-62
2022/10/04 09:53:02;;;;;;;31.85;27.13;;;;;;;;;;10127444;28;20052;-62
2022/10/04 09:58:02;;;;;;;37.92;30.42;;;;;;;;;;10128620;28;20057;-64
2022/10/04 10:03:25;;;;;;;39.88;32.60;;;;;;;;;;10121791;28;20131;-61
2022/10/04 10:09:01;;;;;;;38.80;30.13;;;;;;;;;;10122613;28;20064;-61
2022/10/04 10:14:23;;;;;;;35.70;28.85;;;;;;;;;;10122971;28;20053;-61
2022/10/04 10:19:40;;;;;;;28.38;22.75;;;;;;;;;;10012484;28;20106;-69
2022/10/04 10:24:53;;;;;;;23.25;20.83;;;;;;;;;;10120383;28;20461;-72
2022/10/04 10:30:16;;;;;;;23.30;20.88;;;;;;;;;;10122742;28;20132;-67
2022/10/04 10:35:27;;;;;;;22.23;20.00;;;;;;;;;;10106518;28;20071;-68
2022/10/04 10:40:35;;;;;;;27.67;20.60;;;;;;;;;;10132994;28;20075;-67
2022/10/04 10:45:44;;;;;;;20.83;17.77;;;;;;;;;;10131085;28;20170;-67
2022/10/04 10:51:22;;;;;;;20.40;15.15;;;;;;;;;;10120934;28;20554;-67
2022/10/04 10:56:33;;;;;;;19.65;14.13;;;;;;;;;;10096991;28;20139;-70
2022/10/04 11:02:04;;;;;;;14.70;11.90;;;;;;;;;;10131710;28;20493;-67
2022/10/04 11:07:31;;;;;;;17.60;14.00;;;;;;;;;;10129443;28;20072;-63
2022/10/04 11:13:01;;;;;;;13.90;11.00;;;;;;;;;;10133727;28;20497;-67
2022/10/04 11:18:08;;;;;;;12.85;11.32;;;;;;;;;;10133684;28;20423;-70
2022/10/04 11:23:38;;;;;;;15.27;9.52;;;;;;;;;;10136904;28;20052;-71
2022/10/04 11:28:55;;;;;;;13.80;9.50;;;;;;;;;;10121041;28;20129;-72
2022/10/04 11:34:25;;;;;;;11.70;8.30;;;;;;;;;;10126880;28;20136;-67
2022/10/04 11:39:45;;;;;;;11.15;9.77;;;;;;;;;;10117262;28;20529;-67
2022/10/04 11:44:47;;;;;;;11.50;8.68;;;;;;;;;;10127709;28;20040;-67
2022/10/04 11:49:59;;;;;;;10.40;7.68;;;;;;;;;;10130321;28;20044;-68
2022/10/04 11:55:19;;;;;;;8.43;6.35;;;;;;;;;;10130605;28;20064;-68
2022/10/04 12:00:19;;;;;;;10.30;6.18;;;;;;;;;;10130319;28;20432;-69
2022/10/04 12:05:46;;;;;;;8.10;6.85;;;;;;;;;;10120953;28;20045;-70
2022/10/04 12:10:41;;;;;;;9.70;7.40;;;;;;;;;;10128222;28;20543;-67
2022/10/04 12:16:12;;;;;;;10.18;7.50;;;;;;;;;;10116780;28;20055;-67
2022/10/04 12:21:42;;;;;;;9.32;7.75;;;;;;;;;;10127557;28;20063;-67
2022/10/04 12:27:02;;;;;;;13.40;8.15;;;;;;;;;;10125396;28;21211;-68
2022/10/04 12:32:17;;;;;;;11.57;8.35;;;;;;;;;;10129054;28;20052;-68
2022/10/04 12:37:12;;;;;;;17.30;7.80;;;;;;;;;;10113264;28;20107;-68
2022/10/04 12:42:35;;;;;;;8.23;6.90;;;;;;;;;;10128912;28;20073;-67
2022/10/04 12:47:30;;;;;;;13.93;8.60;;;;;;;;;;10130139;28;20408;-63
2022/10/04 12:52:26;;;;;;;8.05;6.15;;;;;;;;;;10133559;28;20053;-63
2022/10/04 12:57:44;;;;;;;10.13;7.28;;;;;;;;;;10133548;28;20501;-63
2022/10/04 13:02:43;;;;;;;14.88;8.15;;;;;;;;;;10127052;28;20072;-63
2022/10/04 13:07:39;;;;;;;14.43;7.43;;;;;;;;;;10131126;28;20106;-64
2022/10/04 13:12:58;;;;;;;10.32;8.48;;;;;;;;;;10142987;28;20041;-62
2022/10/04 13:18:18;;;;;;;10.23;7.00;;;;;;;;;;10137216;28;20075;-63
2022/10/04 13:23:19;;;;;;;7.85;6.82;;;;;;;;;;10138097;28;20044;-63
2022/10/04 13:28:30;;;;;;;8.60;7.32;;;;;;;;;;10139600;28;20045;-62
2022/10/04 13:34:02;;;;;;;8.63;7.80;;;;;;;;;;10136624;28;20052;-63
2022/10/04 13:39:27;;;;;;;13.52;7.13;;;;;;;;;;10145340;28;20057;-63
2022/10/04 13:44:44;;;;;;;14.15;9.40;;;;;;;;;;10141984;28;20432;-62
2022/10/04 13:49:49;;;;;;;;;;;;;;;;;;10137453;28;20544;-63
2022/10/04 14:00:48;;;;;;;13.30;8.15;;;;;;;;;;10127851;28;20456;-63
2022/10/04 14:06:05;;;;;;;15.63;8.40;;;;;;;;;;10026170;28;20057;-63
2022/10/04 14:11:26;;;;;;;13.07;9.02;;;;;;;;;;10141843;28;20779;-63
2022/10/04 14:16:50;;;;;;;14.60;8.68;;;;;;;;;;10052461;28;20049;-64
2022/10/04 14:21:58;;;;;;;12.30;10.52;;;;;;;;;;10131915;28;20056;-64
2022/10/04 14:27:00;;;;;;;16.10;10.10;;;;;;;;;;10139916;28;20052;-65
2022/10/04 14:32:27;;;;;;;18.67;10.90;;;;;;;;;;10131793;28;20041;-70
2022/10/04 14:37:48;;;;;;;14.23;11.13;;;;;;;;;;10140568;28;20073;-63
2022/10/04 14:43:07;;;;;;;13.70;10.73;;;;;;;;;;10136928;28;20123;-64
2022/10/04 14:48:24;;;;;;;15.50;11.43;;;;;;;;;;10144107;28;20056;-63
2022/10/04 14:53:39;;;;;;;17.02;12.60;;;;;;;;;;10122552;28;20079;-64
2022/10/04 14:58:47;;;;;;;19.08;11.93;;;;;;;;;;10134979;28;20048;-64
2022/10/04 15:03:47;;;;;;;20.83;11.05;;;;;;;;;;10141127;28;20567;-67
2022/10/04 15:08:52;;;;;;;16.70;12.63;;;;;;;;;;10110108;28;20098;-66
2022/10/04 15:13:57;;;;;;;16.50;12.63;;;;;;;;;;10133656;28;20064;-64
2022/10/04 15:19:18;;;;;;;12.77;11.15;;;;;;;;;;10122491;28;20048;-66
2022/10/04 15:24:14;;;;;;;15.00;11.45;;;;;;;;;;10137775;28;20165;-64
2022/10/04 15:29:32;;;;;;;16.70;9.82;;;;;;;;;;10137875;28;20056;-66
2022/10/04 15:34:49;;;;;;;13.57;10.15;;;;;;;;;;10091917;28;20080;-65
2022/10/04 15:40:13;;;;;;;12.60;9.88;;;;;;;;;;10124369;28;20048;-65
2022/10/04 15:45:22;;;;;;;16.52;9.85;;;;;;;;;;10144231;28;20102;-64
2022/10/04 15:50:53;;;;;;;12.52;9.70;;;;;;;;;;10126539;28;20493;-63
2022/10/04 15:56:43;;;;;;;10.13;7.95;;;;;;;;;;10140728;28;20511;-67
2022/10/04 16:02:05;;;;;;;8.55;7.40;;;;;;;;;;9986068;28;20074;-63
2022/10/04 16:07:19;;;;;;;9.63;7.22;;;;;;;;;;10091206;28;20445;-63
2022/10/04 16:12:31;;;;;;;10.27;7.35;;;;;;;;;;10132591;28;20124;-63
2022/10/04 16:18:12;;;;;;;13.52;9.18;;;;;;;;;;10112818;28;20109;-63
2022/10/04 16:23:26;;;;;;;11.32;7.32;;;;;;;;;;10123080;28;20560;-64
2022/10/04 16:28:39;;;;;;;9.18;7.00;;;;;;;;;;10133402;28;20044;-63
2022/10/04 16:33:55;;;;;;;11.10;6.90;;;;;;;;;;10128166;28;20048;-64
2022/10/04 16:44:26;;;;;;;17.25;11.75;;;;;;;;;;10117234;28;20053;-63
2022/10/04 16:49:19;;;;;;;16.58;12.50;;;;;;;;;;10117988;28;20102;-64
2022/10/04 16:54:43;;;;;;;16.73;11.40;;;;;;;;;;10131193;28;20115;-64
2022/10/04 16:59:36;;;;;;;14.20;12.05;;;;;;;;;;10114656;28;20814;-63
2022/10/04 17:04:35;;;;;;;16.65;12.63;;;;;;;;;;10125550;28;20674;-63
2022/10/04 17:09:34;;;;;;;14.75;12.25;;;;;;;;;;10128038;28;20049;-63
2022/10/04 17:14:54;;;;;;;13.63;11.45;;;;;;;;;;10108765;28;20055;-63
2022/10/04 17:19:53;;;;;;;18.55;12.02;;;;;;;;;;10113754;28;20417;-64
2022/10/04 17:25:16;;;;;;;21.17;13.40;;;;;;;;;;10135572;28;20045;-64
2022/10/04 17:30:23;;;;;;;16.77;12.07;;;;;;;;;;10126099;28;20038;-63
2022/10/04 17:35:52;;;;;;;14.33;12.43;;;;;;;;;;10113993;28;20099;-63
2022/10/04 17:40:53;;;;;;;16.92;11.90;;;;;;;;;;10114449;28;20111;-63
2022/10/04 17:45:59;;;;;;;16.20;12.52;;;;;;;;;;10128868;28;20103;-64
2022/10/04 17:56:47;;;;;;;14.35;11.98;;;;;;;;;;10129108;28;20051;-63
2022/10/04 18:01:58;;;;;;;17.40;13.05;;;;;;;;;;10124658;28;20049;-63
2022/10/04 18:07:16;;;;;;;19.58;14.32;;;;;;;;;;10098473;28;20045;-60
2022/10/04 18:12:34;;;;;;;17.70;15.80;;;;;;;;;;10115923;28;20060;-62
2022/10/04 18:17:31;;;;;;;15.43;12.55;;;;;;;;;;10116186;28;20205;-62
2022/10/04 18:22:28;;;;;;;15.93;14.13;;;;;;;;;;10108226;28;20132;-63
2022/10/04 18:27:22;;;;;;;16.35;12.57;;;;;;;;;;10118384;28;20049;-64
2022/10/04 18:32:24;;;;;;;18.05;13.40;;;;;;;;;;10113825;28;20113;-62
2022/10/04 18:37:20;;;;;;;21.67;13.68;;;;;;;;;;10116652;28;20060;-62
2022/10/04 18:42:13;;;;;;;21.88;14.35;;;;;;;;;;10103163;28;20048;-63
2022/10/04 18:47:14;;;;;;;15.93;13.27;;;;;;;;;;10120300;28;20427;-63
2022/10/04 18:52:08;;;;;;;17.95;14.13;;;;;;;;;;10114682;28;20048;-64
2022/10/04 18:57:13;;;;;;;17.33;15.55;;;;;;;;;;10124556;28;20049;-64
2022/10/04 19:02:08;;;;;;;20.13;16.58;;;;;;;;;;10120462;28;20416;-63
2022/10/04 19:07:30;;;;;;;16.65;14.85;;;;;;;;;;10112874;28;20098;-65
2022/10/04 19:12:35;;;;;;;20.38;15.30;;;;;;;;;;10122468;28;20052;-63
2022/10/04 19:17:42;;;;;;;17.58;15.77;;;;;;;;;;10117280;28;20053;-61
2022/10/04 19:23:03;;;;;;;17.83;14.85;;;;;;;;;;10119319;28;20060;-61
2022/10/04 19:28:10;;;;;;;18.17;13.98;;;;;;;;;;10119521;28;20131;-63
2022/10/04 19:33:17;;;;;;;17.65;15.02;;;;;;;;;;10113734;28;20468;-61
2022/10/04 19:38:24;;;;;;;21.92;15.52;;;;;;;;;;10113101;28;20076;-60
2022/10/04 19:43:53;;;;;;;20.17;16.05;;;;;;;;;;10128721;28;20469;-61
2022/10/04 19:48:49;;;;;;;21.45;16.55;;;;;;;;;;10114409;28;20075;-59
2022/10/04 19:53:44;;;;;;;19.85;17.05;;;;;;;;;;10122482;28;20059;-60
2022/10/04 19:58:44;;;;;;;16.73;14.32;;;;;;;;;;10113516;28;20036;-59
2022/10/04 20:03:42;;;;;;;19.70;15.88;;;;;;;;;;10121263;28;20536;-60
2022/10/04 20:08:52;;;;;;;16.98;15.27;;;;;;;;;;10132878;28;20047;-60
2022/10/04 20:14:16;;;;;;;19.10;14.45;;;;;;;;;;10118979;28;20055;-59
2022/10/04 20:19:31;;;;;;;18.67;13.73;;;;;;;;;;10130667;28;20135;-59
2022/10/04 20:24:36;;;;;;;18.02;15.75;;;;;;;;;;10135934;28;20041;-59
2022/10/04 20:29:36;;;;;;;17.30;14.38;;;;;;;;;;10136123;28;20056;-58
2022/10/04 20:34:46;;;;;;;18.85;16.88;;;;;;;;;;10133482;28;20080;-60
2022/10/04 20:39:40;;;;;;;19.80;17.50;;;;;;;;;;10128767;28;20041;-60
2022/10/04 20:44:50;;;;;;;17.38;15.52;;;;;;;;;;10134632;28;20049;-60
2022/10/04 20:49:43;;;;;;;;;;;;;;;;;;10138914;28;20076;-60
2022/10/04 20:54:37;;;;;;;24.70;18.65;;;;;;;;;;10131116;28;20300;-60
2022/10/04 20:59:31;;;;;;;19.75;17.20;;;;;;;;;;10142617;28;20079;-60
2022/10/04 21:04:49;;;;;;;19.15;15.63;;;;;;;;;;10141136;28;20512;-60
2022/10/04 21:09:46;;;;;;;19.55;17.45;;;;;;;;;;10127635;28;20091;-60
2022/10/04 21:15:00;;;;;;;23.65;18.15;;;;;;;;;;10126178;28;20102;-60
2022/10/04 21:19:54;;;;;;;19.80;16.90;;;;;;;;;;10125923;28;20060;-60
2022/10/04 21:24:47;;;;;;;20.50;16.13;;;;;;;;;;10127614;28;20052;-59
2022/10/04 21:29:41;;;;;;;20.42;18.17;;;;;;;;;;10122037;28;20118;-59
2022/10/04 21:34:35;;;;;;;21.98;17.98;;;;;;;;;;10123370;28;20057;-60
2022/10/04 21:39:46;;;;;;;31.23;21.25;;;;;;;;;;10115062;28;20051;-60
2022/10/04 21:44:40;;;;;;;25.20;19.30;;;;;;;;;;10118232;28;20144;-60
2022/10/04 21:49:35;;;;;;;22.02;19.00;;;;;;;;;;10111776;28;20056;-60
2022/10/04 21:54:29;;;;;;;24.30;18.48;;;;;;;;;;10115983;28;20106;-60
2022/10/04 21:59:24;;;;;;;25.38;19.73;;;;;;;;;;10109857;28;20059;-60
2022/10/04 22:04:18;;;;;;;25.20;18.70;;;;;;;;;;10115518;28;20056;-60
2022/10/04 22:09:15;;;;;;;21.02;17.92;;;;;;;;;;10120028;28;20079;-60
2022/10/04 22:14:12;;;;;;;;;;;;;;;;;;10117898;28;20135;-60
2022/10/04 22:19:09;;;;;;;20.98;17.40;;;;;;;;;;10120802;28;20020;-61
2022/10/04 22:24:18;;;;;;;23.85;17.00;;;;;;;;;;10118085;28;20523;-60
2022/10/04 22:29:16;;;;;;;21.05;18.55;;;;;;;;;;10126946;28;20839;-61
2022/10/04 22:34:17;;;;;;;;;;;;;;;;;;10119110;28;20065;-61
2022/10/04 22:39:16;;;;;;;21.45;18.15;;;;;;;;;;10139236;28;19924;-61
2022/10/04 22:44:36;;;;;;;24.25;18.92;;;;;;;;;;10137201;28;20044;-61
2022/10/04 22:49:32;;;;;;;20.75;18.58;;;;;;;;;;10130530;28;20106;-62
2022/10/04 22:54:30;;;;;;;25.38;20.92;;;;;;;;;;10135192;28;20128;-61
2022/10/04 22:59:36;;;;;;;23.80;20.27;;;;;;;;;;10127486;28;20049;-61
2022/10/04 23:04:30;;;;;;;22.73;19.20;;;;;;;;;;10130578;28;20412;-61
2022/10/04 23:09:24;;;;;;;22.45;19.00;;;;;;;;;;10122321;28;20056;-61
2022/10/04 23:14:18;;;;;;;25.45;19.73;;;;;;;;;;10120816;28;20048;-61
2022/10/04 23:19:17;;;;;;;23.33;20.42;;;;;;;;;;10121629;28;20062;-61
2022/10/04 23:24:18;;;;;;;22.67;19.00;;;;;;;;;;10128726;28;20074;-61
2022/10/04 23:29:18;;;;;;;24.70;19.80;;;;;;;;;;10125058;28;20088;-61
2022/10/04 23:34:33;;;;;;;30.88;20.83;;;;;;;;;;10132317;28;20060;-61
2022/10/04 23:39:31;;;;;;;23.35;18.77;;;;;;;;;;10107189;28;20118;-60
2022/10/04 23:44:36;;;;;;;27.40;22.00;;;;;;;;;;10106497;28;20045;-61
2022/10/04 23:49:30;;;;;;;26.13;21.48;;;;;;;;;;10133676;28;20118;-61
2022/10/04 23:54:24;;;;;;;24.52;20.35;;;;;;;;;;10136618;28;20135;-61
2022/10/04 23:59:19;;;;;;;30.92;22.20;;;;;;;;;;10130665;28;20059;-61
